createdAt,value
2019-04-11T00:03:44.616Z,6.32
2019-04-11T00:08:47.104Z,6.25
2019-04-11T00:13:49.519Z,6.16
2019-04-11T00:18:51.791Z,6.18
2019-04-11T00:23:54.529Z,6.00
2019-04-11T00:28:56.894Z,5.90
2019-04-11T00:33:58.912Z,5.97
2019-04-11T00:39:01.385Z,5.94
2019-04-11T00:44:03.859Z,5.92
2019-04-11T00:49:06.247Z,5.78
2019-04-11T00:54:08.777Z,5.80
2019-04-11T00:59:10.951Z,5.57
2019-04-11T01:04:13.713Z,5.62
2019-04-11T01:09:15.915Z,5.60
2019-04-11T01:14:17.889Z,5.49
2019-04-11T01:19:19.925Z,5.41
2019-04-11T01:24:22.144Z,5.34
2019-04-11T01:29:25.191Z,5.34
2019-04-11T01:34:28.706Z,5.24
2019-04-11T01:39:57.204Z,5.17
2019-04-11T01:44:59.473Z,5.10
2019-04-11T01:50:02.993Z,5.09
2019-04-11T01:55:05.485Z,5.06
2019-04-11T02:00:10.855Z,4.98
2019-04-11T02:05:25.079Z,4.95
2019-04-11T02:10:28.617Z,5.10
2019-04-11T02:15:30.891Z,4.95
2019-04-11T02:20:33.409Z,5.11
2019-04-11T02:25:51.045Z,4.90
2019-04-11T02:30:55.799Z,4.89
2019-04-11T02:35:58.249Z,4.82
2019-04-11T02:41:01.157Z,4.81
2019-04-11T02:46:11.706Z,4.74
2019-04-11T02:51:07.646Z,4.70
2019-04-11T02:56:11.705Z,4.51
2019-04-11T03:01:15.469Z,4.59
2019-04-11T03:06:19.358Z,4.66
2019-04-11T03:11:23.655Z,4.38
2019-04-11T03:16:39.351Z,4.34
2019-04-11T03:21:33.217Z,4.37
2019-04-11T03:26:35.509Z,4.35
2019-04-11T03:42:07.409Z,4.16
2019-04-11T03:47:08.402Z,4.07
2019-04-11T03:51:55.275Z,4.00
2019-04-11T03:56:59.172Z,4.14
2019-04-11T04:02:03.131Z,4.06
2019-04-11T04:07:06.905Z,4.04
2019-04-11T04:12:11.459Z,4.02
2019-04-11T04:17:25.500Z,3.99
2019-04-11T04:22:35.454Z,3.95
2019-04-11T04:27:38.773Z,4.00
2019-04-11T04:32:42.863Z,3.76
2019-04-11T04:37:47.079Z,3.72
2019-04-11T04:42:53.313Z,3.56
2019-04-11T04:48:00.470Z,3.68
2019-04-11T04:52:58.635Z,3.38
2019-04-11T04:58:02.204Z,3.56
2019-04-11T05:03:05.521Z,3.41
2019-04-11T05:08:08.320Z,3.29
2019-04-11T05:13:12.974Z,3.56
2019-04-11T05:18:17.454Z,3.68
2019-04-11T05:23:19.200Z,3.76
2019-04-11T05:28:21.486Z,3.62
2019-04-11T05:33:23.666Z,3.81
2019-04-11T05:38:25.704Z,3.67
2019-04-11T05:43:31.467Z,3.78
2019-04-11T05:49:00.427Z,3.85
2019-04-11T05:54:06.267Z,3.93
2019-04-11T05:59:18.912Z,3.83
2019-04-11T06:04:30.443Z,3.92
2019-04-11T06:09:36.022Z,3.95
2019-04-11T06:14:44.634Z,4.14
2019-04-11T06:20:06.483Z,4.12
2019-04-11T06:25:46.321Z,4.38
2019-04-11T06:31:06.060Z,4.43
2019-04-11T06:36:26.627Z,4.65
2019-04-11T06:41:43.024Z,4.75
2019-04-11T06:47:08.275Z,4.83
2019-04-11T06:52:10.775Z,4.96
2019-04-11T06:57:16.627Z,5.06
2019-04-11T07:02:21.367Z,5.08
2019-04-11T07:07:27.024Z,5.08
2019-04-11T07:12:40.770Z,5.15
2019-04-11T07:18:21.001Z,5.31
2019-04-11T07:23:44.004Z,5.57
2019-04-11T07:29:04.515Z,5.79
2019-04-11T07:34:37.469Z,5.89
2019-04-11T07:39:58.580Z,6.02
2019-04-11T07:45:04.158Z,6.20
2019-04-11T07:50:07.905Z,6.42
2019-04-11T07:55:11.851Z,6.38
2019-04-11T08:00:38.638Z,6.71
2019-04-11T08:05:53.030Z,6.77
2019-04-11T08:11:06.715Z,6.78
2019-04-11T08:16:28.977Z,6.95
2019-04-11T08:21:50.417Z,6.98
2019-04-11T08:27:17.726Z,7.08
2019-04-11T08:32:38.153Z,7.13
2019-04-11T08:38:09.915Z,7.19
2019-04-11T08:43:17.071Z,7.44
2019-04-11T08:48:19.258Z,7.33
2019-04-11T08:53:40.662Z,7.34
2019-04-11T08:59:22.802Z,7.56
2019-04-11T09:04:50.370Z,7.55
2019-04-11T09:10:13.790Z,7.77
2019-04-11T09:15:35.157Z,7.64
2019-04-11T09:20:50.217Z,8.19
2019-04-11T09:26:30.284Z,8.08
2019-04-11T09:31:50.111Z,7.98
2019-04-11T09:37:18.818Z,8.07
2019-04-11T09:42:41.081Z,8.28
2019-04-11T09:48:08.367Z,8.58
2019-04-11T09:53:05.780Z,8.31
2019-04-11T09:58:23.198Z,8.21
2019-04-11T10:03:28.721Z,8.51
2019-04-11T10:08:37.343Z,8.58
2019-04-11T10:13:59.544Z,8.53
